Time;durP1;ratioP1;P1;durP2;ratioP2;P2;SDS_P1;SDS_P2;PMS_P1;PMS_P2;Temp;Humidity;BMP_temperature;BMP_pressure;BME280_temperature;BME280_humidity;BME280_pressure;Samples;Min_cycle;Max_cycle;Signal;HPM_P1;HPM_P2
2021/03/02 00:00:32;;;;;;;3.90;3.60;;;;;;;;;;5059295;28;20207;-57
2021/03/02 00:03:00;;;;;;;3.88;3.58;;;;;;;;;;5056349;28;20248;-57
2021/03/02 00:05:26;;;;;;;4.15;3.78;;;;;;;;;;5055279;28;20195;-57
2021/03/02 00:07:52;;;;;;;4.32;3.92;;;;;;;;;;5055894;28;20199;-57
2021/03/02 00:10:18;;;;;;;4.35;3.95;;;;;;;;;;5055637;28;20179;-57
2021/03/02 00:12:44;;;;;;;4.22;3.67;;;;;;;;;;5057604;28;20206;-58
2021/03/02 00:15:12;;;;;;;3.75;3.45;;;;;;;;;;5056251;28;20195;-58
2021/03/02 00:17:38;;;;;;;4.20;3.63;;;;;;;;;;5058316;28;20183;-58
2021/03/02 00:20:07;;;;;;;3.85;3.35;;;;;;;;;;5061856;28;20244;-58
2021/03/02 00:22:34;;;;;;;3.90;3.60;;;;;;;;;;5055485;28;20183;-58
2021/03/02 00:25:03;;;;;;;3.70;3.40;;;;;;;;;;5055358;28;20337;-57
2021/03/02 00:27:30;;;;;;;4.15;3.75;;;;;;;;;;5076108;28;20175;-57
2021/03/02 00:29:56;;;;;;;3.90;3.60;;;;;;;;;;5060628;28;20194;-57
2021/03/02 00:32:22;;;;;;;3.78;3.47;;;;;;;;;;5055677;28;20188;-57
2021/03/02 00:34:48;;;;;;;3.78;3.47;;;;;;;;;;5057020;28;20641;-57
2021/03/02 00:37:14;;;;;;;4.20;3.80;;;;;;;;;;5075778;28;20182;-58
2021/03/02 00:39:41;;;;;;;4.30;3.90;;;;;;;;;;5061240;28;20183;-58
2021/03/02 00:42:07;;;;;;;4.03;3.63;;;;;;;;;;5068846;28;20619;-57
2021/03/02 00:44:33;;;;;;;4.10;3.70;;;;;;;;;;5075356;28;20186;-58
2021/03/02 00:46:59;;;;;;;3.75;3.45;;;;;;;;;;5055669;28;20222;-57
2021/03/02 00:49:25;;;;;;;4.00;3.40;;;;;;;;;;5054942;28;20199;-57
2021/03/02 00:51:51;;;;;;;3.72;3.42;;;;;;;;;;5055349;28;20258;-57
2021/03/02 00:54:17;;;;;;;4.32;3.85;;;;;;;;;;5054844;28;20270;-57
2021/03/02 00:56:43;;;;;;;3.70;3.40;;;;;;;;;;5058203;28;20186;-57
2021/03/02 00:59:09;;;;;;;3.60;3.30;;;;;;;;;;5055301;28;20183;-57
2021/03/02 01:01:35;;;;;;;3.88;3.58;;;;;;;;;;5055438;28;20655;-57
2021/03/02 01:04:01;;;;;;;3.45;3.15;;;;;;;;;;5055936;28;20179;-57
2021/03/02 01:06:27;;;;;;;3.33;3.13;;;;;;;;;;5055099;28;20201;-57
2021/03/02 01:08:53;;;;;;;3.83;3.53;;;;;;;;;;5054855;28;20478;-57
2021/03/02 01:11:19;;;;;;;3.85;3.55;;;;;;;;;;5059895;28;20183;-57
2021/03/02 01:13:45;;;;;;;3.53;3.22;;;;;;;;;;5055401;28;20175;-57
2021/03/02 01:16:11;;;;;;;3.97;3.55;;;;;;;;;;5054471;28;20225;-57
2021/03/02 01:18:37;;;;;;;3.90;3.50;;;;;;;;;;5054441;28;20191;-57
2021/03/02 01:21:04;;;;;;;4.10;3.70;;;;;;;;;;5054651;28;20247;-57
2021/03/02 01:23:30;;;;;;;3.72;3.42;;;;;;;;;;5054239;28;20214;-57
2021/03/02 01:25:56;;;;;;;3.72;3.33;;;;;;;;;;5055853;28;20222;-57
2021/03/02 01:28:22;;;;;;;3.70;3.40;;;;;;;;;;5054430;28;20264;-57
2021/03/02 01:30:47;;;;;;;4.28;3.70;;;;;;;;;;5054801;28;20593;-57
2021/03/02 01:33:13;;;;;;;4.05;3.63;;;;;;;;;;5054210;28;20199;-57
2021/03/02 01:35:39;;;;;;;3.60;3.30;;;;;;;;;;5053829;28;20198;-57
2021/03/02 01:38:06;;;;;;;3.75;3.45;;;;;;;;;;5053933;28;20229;-57
2021/03/02 01:40:32;;;;;;;4.13;3.47;;;;;;;;;;5055312;28;20258;-57
2021/03/02 01:42:58;;;;;;;3.50;3.20;;;;;;;;;;5054741;28;20197;-58
2021/03/02 01:45:24;;;;;;;3.85;3.55;;;;;;;;;;5053017;28;20262;-57
2021/03/02 01:47:52;;;;;;;3.92;3.63;;;;;;;;;;5053648;28;20186;-57
2021/03/02 01:50:19;;;;;;;3.83;3.53;;;;;;;;;;5054549;28;20185;-57
2021/03/02 01:52:45;;;;;;;3.60;3.30;;;;;;;;;;5054590;28;20193;-57
2021/03/02 01:55:11;;;;;;;4.15;3.75;;;;;;;;;;5055988;28;20183;-57
2021/03/02 01:57:37;;;;;;;3.67;3.38;;;;;;;;;;5054601;28;20175;-57
2021/03/02 02:00:13;;;;;;;3.67;3.38;;;;;;;;;;5053972;28;20183;-57
2021/03/02 02:02:59;;;;;;;3.70;3.38;;;;;;;;;;5054340;28;20187;-57
2021/03/02 02:05:27;;;;;;;3.60;3.30;;;;;;;;;;5053130;28;20194;-57
2021/03/02 02:07:58;;;;;;;3.70;3.28;;;;;;;;;;5057292;28;20209;-57
2021/03/02 02:10:31;;;;;;;4.07;3.70;;;;;;;;;;5056528;28;20236;-57
2021/03/02 02:13:03;;;;;;;4.10;3.80;;;;;;;;;;5074691;28;20725;-57
2021/03/02 02:15:33;;;;;;;3.88;3.50;;;;;;;;;;5060311;28;20191;-57
2021/03/02 02:18:01;;;;;;;3.80;3.40;;;;;;;;;;5053927;28;20183;-57
2021/03/02 02:20:35;;;;;;;3.85;3.55;;;;;;;;;;5053769;28;20585;-57
2021/03/02 02:23:20;;;;;;;3.88;3.58;;;;;;;;;;5052761;28;20185;-57
2021/03/02 02:25:51;;;;;;;3.67;3.38;;;;;;;;;;5057950;28;20186;-57
2021/03/02 02:28:18;;;;;;;3.80;3.50;;;;;;;;;;5072767;28;20745;-57
2021/03/02 02:30:46;;;;;;;4.03;3.63;;;;;;;;;;5063101;28;20187;-57
2021/03/02 02:33:12;;;;;;;3.75;3.45;;;;;;;;;;5068505;28;20186;-57
2021/03/02 02:35:40;;;;;;;3.80;3.50;;;;;;;;;;5059508;28;20569;-57
2021/03/02 02:38:06;;;;;;;4.53;4.10;;;;;;;;;;5052945;28;20265;-57
2021/03/02 02:40:32;;;;;;;3.70;3.40;;;;;;;;;;5058757;28;20473;-57
2021/03/02 02:42:59;;;;;;;4.20;3.80;;;;;;;;;;5074176;28;20497;-57
2021/03/02 02:45:26;;;;;;;3.80;3.50;;;;;;;;;;5061866;28;20179;-57
2021/03/02 02:47:52;;;;;;;4.00;3.70;;;;;;;;;;5064335;28;20186;-57
2021/03/02 02:50:19;;;;;;;3.53;3.25;;;;;;;;;;5052938;28;20214;-57
2021/03/02 02:52:45;;;;;;;3.53;3.22;;;;;;;;;;5053495;28;20558;-57
2021/03/02 02:55:13;;;;;;;3.60;3.30;;;;;;;;;;5054509;28;20191;-57
2021/03/02 02:57:42;;;;;;;4.05;3.75;;;;;;;;;;5061375;28;20582;-57
2021/03/02 03:00:08;;;;;;;4.07;3.67;;;;;;;;;;5057454;28;20183;-57
2021/03/02 03:02:35;;;;;;;3.95;3.65;;;;;;;;;;5059287;28;20253;-57
2021/03/02 03:05:04;;;;;;;4.03;3.72;;;;;;;;;;5056362;28;20199;-56
2021/03/02 03:07:32;;;;;;;3.83;3.53;;;;;;;;;;5056927;28;20199;-56
2021/03/02 03:10:00;;;;;;;3.42;3.13;;;;;;;;;;5057153;28;20206;-57
2021/03/02 03:12:26;;;;;;;3.38;3.17;;;;;;;;;;5068184;28;20233;-57
2021/03/02 03:14:54;;;;;;;3.60;3.30;;;;;;;;;;5056749;28;20179;-57
2021/03/02 03:17:21;;;;;;;3.80;3.50;;;;;;;;;;5057021;28;20172;-57
2021/03/02 03:19:47;;;;;;;3.85;3.50;;;;;;;;;;5057227;28;20269;-57
2021/03/02 03:22:14;;;;;;;3.78;3.47;;;;;;;;;;5056907;28;20232;-57
2021/03/02 03:24:41;;;;;;;4.32;3.92;;;;;;;;;;5056526;28;20590;-57
2021/03/02 03:27:08;;;;;;;4.25;3.90;;;;;;;;;;5071634;28;20209;-57
2021/03/02 03:29:34;;;;;;;3.80;3.50;;;;;;;;;;5060006;28;20202;-57
2021/03/02 03:32:01;;;;;;;4.05;3.75;;;;;;;;;;5070950;28;20190;-57
2021/03/02 03:34:27;;;;;;;3.78;3.47;;;;;;;;;;5061087;28;20187;-57
2021/03/02 03:36:54;;;;;;;3.85;3.55;;;;;;;;;;5056962;28;20261;-57
2021/03/02 03:39:20;;;;;;;3.97;3.67;;;;;;;;;;5056516;28;20215;-57
2021/03/02 03:41:48;;;;;;;3.70;3.40;;;;;;;;;;5071102;28;20883;-57
2021/03/02 03:44:14;;;;;;;3.75;3.45;;;;;;;;;;5062443;28;20293;-57
2021/03/02 03:46:40;;;;;;;3.85;3.55;;;;;;;;;;5062685;28;20570;-57
2021/03/02 03:49:06;;;;;;;4.03;3.72;;;;;;;;;;5056372;28;20207;-57
2021/03/02 03:51:33;;;;;;;3.47;3.17;;;;;;;;;;5056775;28;20178;-57
2021/03/02 03:53:59;;;;;;;3.72;3.42;;;;;;;;;;5055715;28;20190;-57
2021/03/02 03:56:26;;;;;;;4.47;3.60;;;;;;;;;;5068305;28;20201;-57
2021/03/02 03:58:52;;;;;;;3.63;3.33;;;;;;;;;;5071186;28;20584;-57
2021/03/02 04:01:19;;;;;;;3.78;3.47;;;;;;;;;;5076289;28;20264;-57
2021/03/02 04:03:45;;;;;;;3.85;3.55;;;;;;;;;;5067361;28;20198;-57
2021/03/02 04:06:12;;;;;;;3.15;2.90;;;;;;;;;;5055188;28;20264;-57
2021/03/02 04:08:39;;;;;;;3.40;3.10;;;;;;;;;;5055164;28;20230;-57
2021/03/02 04:11:05;;;;;;;4.28;3.60;;;;;;;;;;5065318;28;20181;-57
2021/03/02 04:13:31;;;;;;;3.70;3.40;;;;;;;;;;5074172;28;20179;-57
2021/03/02 04:16:00;;;;;;;3.63;3.33;;;;;;;;;;5075998;28;20171;-57
2021/03/02 04:18:26;;;;;;;3.20;2.90;;;;;;;;;;5062674;28;20183;-57
2021/03/02 04:20:53;;;;;;;3.95;3.55;;;;;;;;;;5076508;28;20194;-57
2021/03/02 04:23:19;;;;;;;3.55;3.25;;;;;;;;;;5057528;28;20270;-57
2021/03/02 04:25:45;;;;;;;3.22;2.92;;;;;;;;;;5062026;28;20194;-57
2021/03/02 04:28:11;;;;;;;3.55;3.25;;;;;;;;;;5055655;28;20199;-57
2021/03/02 04:30:37;;;;;;;3.75;3.45;;;;;;;;;;5056255;28;20555;-55
2021/03/02 04:33:03;;;;;;;3.53;3.22;;;;;;;;;;5056060;28;20186;-56
2021/03/02 04:35:29;;;;;;;3.67;3.38;;;;;;;;;;5059424;28;20570;-56
2021/03/02 04:37:55;;;;;;;3.58;3.28;;;;;;;;;;5056576;28;20211;-56
2021/03/02 04:40:22;;;;;;;3.55;3.25;;;;;;;;;;5054895;28;20179;-56
2021/03/02 04:42:48;;;;;;;3.45;3.15;;;;;;;;;;5055409;28;20186;-56
2021/03/02 04:45:14;;;;;;;3.90;3.60;;;;;;;;;;5064594;28;20174;-56
2021/03/02 04:47:41;;;;;;;3.40;3.10;;;;;;;;;;5058501;28;20187;-56
2021/03/02 04:50:07;;;;;;;3.58;3.15;;;;;;;;;;5055023;28;20568;-57
2021/03/02 04:52:33;;;;;;;3.63;3.33;;;;;;;;;;5055588;28;20187;-57
2021/03/02 04:54:59;;;;;;;3.45;3.15;;;;;;;;;;5061846;28;20187;-57
2021/03/02 04:57:25;;;;;;;3.13;2.85;;;;;;;;;;5056528;28;20434;-57
2021/03/02 04:59:52;;;;;;;3.40;3.10;;;;;;;;;;5055365;28;20197;-57
2021/03/02 05:02:18;;;;;;;3.88;3.58;;;;;;;;;;5055311;28;20199;-57
2021/03/02 05:04:44;;;;;;;3.05;2.83;;;;;;;;;;5054876;28;20195;-57
2021/03/02 05:07:10;;;;;;;4.60;2.90;;;;;;;;;;5054706;28;20206;-57
2021/03/02 05:09:36;;;;;;;3.33;3.03;;;;;;;;;;5054852;28;20211;-57
2021/03/02 05:12:02;;;;;;;3.58;3.28;;;;;;;;;;5065653;28;20174;-57
2021/03/02 05:14:28;;;;;;;3.63;3.33;;;;;;;;;;5074770;28;20170;-57
2021/03/02 05:16:54;;;;;;;3.53;3.22;;;;;;;;;;5067215;28;20217;-58
2021/03/02 05:19:20;;;;;;;3.60;3.30;;;;;;;;;;5054654;28;20564;-57
2021/03/02 05:21:46;;;;;;;3.42;3.13;;;;;;;;;;5055067;28;20182;-57
2021/03/02 05:24:13;;;;;;;3.13;2.90;;;;;;;;;;5056640;28;20183;-57
2021/03/02 05:26:39;;;;;;;3.70;3.40;;;;;;;;;;5053582;28;20258;-57
2021/03/02 05:29:05;;;;;;;3.10;2.90;;;;;;;;;;5054480;28;20653;-57
2021/03/02 05:31:31;;;;;;;3.15;2.95;;;;;;;;;;5061178;28;20186;-57
2021/03/02 05:33:57;;;;;;;3.50;3.20;;;;;;;;;;5054463;28;20214;-57
2021/03/02 05:36:23;;;;;;;3.78;3.38;;;;;;;;;;5053785;28;20193;-57
2021/03/02 05:38:49;;;;;;;3.13;2.83;;;;;;;;;;5054603;28;20183;-57
2021/03/02 05:41:15;;;;;;;3.40;3.10;;;;;;;;;;5054201;28;20615;-57
2021/03/02 05:43:42;;;;;;;3.30;3.00;;;;;;;;;;5054520;28;20182;-57
2021/03/02 05:46:08;;;;;;;2.75;2.55;;;;;;;;;;5056825;28;20628;-57
2021/03/02 05:48:34;;;;;;;3.10;2.90;;;;;;;;;;5054422;28;20252;-57
2021/03/02 05:51:00;;;;;;;3.83;3.47;;;;;;;;;;5042715;28;20202;-57
2021/03/02 05:53:27;;;;;;;3.95;3.22;;;;;;;;;;5053874;28;20196;-57
2021/03/02 05:55:53;;;;;;;3.33;3.05;;;;;;;;;;5058999;28;20231;-57
2021/03/02 05:58:19;;;;;;;3.20;2.90;;;;;;;;;;5054030;28;20230;-57
2021/03/02 06:00:46;;;;;;;3.47;3.17;;;;;;;;;;5052222;28;20589;-57
2021/03/02 06:03:12;;;;;;;3.53;3.22;;;;;;;;;;5053113;28;20172;-57
2021/03/02 06:05:38;;;;;;;3.50;3.20;;;;;;;;;;5055712;28;20170;-57
2021/03/02 06:08:07;;;;;;;3.30;3.00;;;;;;;;;;5068884;28;20238;-58
2021/03/02 06:10:33;;;;;;;3.72;3.42;;;;;;;;;;5057754;28;20205;-59
2021/03/02 06:13:00;;;;;;;3.30;3.00;;;;;;;;;;5074136;28;20174;-59
2021/03/02 06:15:26;;;;;;;3.75;3.33;;;;;;;;;;5063486;28;20463;-59
2021/03/02 06:18:08;;;;;;;3.53;3.22;;;;;;;;;;5053643;28;20187;-59
2021/03/02 06:20:34;;;;;;;3.72;3.42;;;;;;;;;;5070937;28;20182;-59
2021/03/02 06:23:00;;;;;;;3.70;3.40;;;;;;;;;;5053788;28;20248;-59
2021/03/02 06:25:26;;;;;;;4.72;3.22;;;;;;;;;;5053017;28;20635;-59
2021/03/02 06:27:52;;;;;;;4.03;3.58;;;;;;;;;;5053162;28;20183;-59
2021/03/02 06:30:18;;;;;;;3.55;3.25;;;;;;;;;;5053483;28;20199;-59
2021/03/02 06:32:48;;;;;;;3.42;3.10;;;;;;;;;;5053155;28;20195;-59
2021/03/02 06:35:29;;;;;;;3.63;3.33;;;;;;;;;;5070868;28;20532;-59
2021/03/02 06:37:56;;;;;;;3.47;3.05;;;;;;;;;;5032983;28;20495;-59
2021/03/02 06:40:36;;;;;;;3.70;3.40;;;;;;;;;;5033549;28;20184;-59
2021/03/02 06:43:02;;;;;;;3.83;3.42;;;;;;;;;;5033707;28;20175;-59
2021/03/02 06:45:28;;;;;;;4.15;3.85;;;;;;;;;;5047129;28;20290;-59
2021/03/02 06:48:04;;;;;;;3.60;3.30;;;;;;;;;;5055203;28;20194;-59
2021/03/02 06:50:36;;;;;;;4.10;3.70;;;;;;;;;;5071753;28;20203;-59
2021/03/02 06:53:07;;;;;;;3.88;3.47;;;;;;;;;;5058687;28;20257;-59
2021/03/02 06:55:34;;;;;;;4.22;3.58;;;;;;;;;;5053712;28;20201;-59
2021/03/02 06:58:16;;;;;;;4.32;3.67;;;;;;;;;;5052744;28;20179;-59
2021/03/02 07:00:46;;;;;;;4.10;3.70;;;;;;;;;;5053379;28;20197;-59
2021/03/02 07:03:26;;;;;;;3.80;3.50;;;;;;;;;;5053363;28;20185;-56
2021/03/02 07:05:52;;;;;;;4.25;3.67;;;;;;;;;;5047475;28;20187;-54
2021/03/02 07:08:18;;;;;;;4.30;3.90;;;;;;;;;;5053126;28;20282;-53
2021/03/02 07:10:49;;;;;;;4.32;3.92;;;;;;;;;;5053192;28;20194;-51
2021/03/02 07:13:16;;;;;;;5.18;3.72;;;;;;;;;;5053076;28;20177;-51
2021/03/02 07:15:42;;;;;;;4.45;3.67;;;;;;;;;;5052728;28;20266;-53
2021/03/02 07:18:10;;;;;;;6.97;4.13;;;;;;;;;;5052996;28;20179;-50
2021/03/02 07:20:38;;;;;;;5.68;4.10;;;;;;;;;;5053683;28;20610;-48
2021/03/02 07:23:05;;;;;;;8.48;5.07;;;;;;;;;;5053946;28;20195;-49
2021/03/02 07:25:31;;;;;;;10.85;4.65;;;;;;;;;;5052604;28;20207;-49
2021/03/02 07:28:00;;;;;;;9.35;5.07;;;;;;;;;;5052858;28;20193;-49
2021/03/02 07:30:26;;;;;;;10.55;4.90;;;;;;;;;;5053107;28;20190;-49
2021/03/02 07:32:52;;;;;;;8.48;4.88;;;;;;;;;;5053559;28;20251;-49
2021/03/02 07:35:19;;;;;;;10.70;5.20;;;;;;;;;;5053247;28;20224;-52
2021/03/02 07:37:46;;;;;;;10.50;5.20;;;;;;;;;;5061616;28;20183;-50
2021/03/02 07:40:14;;;;;;;6.85;5.03;;;;;;;;;;5072350;28;20493;-55
2021/03/02 07:42:40;;;;;;;6.25;4.65;;;;;;;;;;5070199;28;20174;-62
2021/03/02 07:45:12;;;;;;;7.35;4.82;;;;;;;;;;5055251;28;20554;-55
2021/03/02 07:47:41;;;;;;;7.53;4.70;;;;;;;;;;5055925;28;20178;-55
2021/03/02 07:50:16;;;;;;;7.65;5.13;;;;;;;;;;5059825;28;20261;-51
2021/03/02 07:52:42;;;;;;;7.22;4.80;;;;;;;;;;5068830;28;20182;-54
2021/03/02 07:55:19;;;;;;;10.02;4.68;;;;;;;;;;5055969;28;20266;-61
2021/03/02 07:57:45;;;;;;;10.18;5.07;;;;;;;;;;5068159;28;20185;-54
2021/03/02 08:00:14;;;;;;;8.38;5.10;;;;;;;;;;5076485;28;20190;-58
2021/03/02 08:02:40;;;;;;;10.57;5.15;;;;;;;;;;5074065;28;20203;-54
2021/03/02 08:05:25;;;;;;;8.30;4.60;;;;;;;;;;5055527;28;20745;-51
2021/03/02 08:07:51;;;;;;;8.75;4.60;;;;;;;;;;5068651;28;20206;-54
2021/03/02 08:10:36;;;;;;;7.15;4.32;;;;;;;;;;5055963;28;20214;-52
2021/03/02 08:13:20;;;;;;;9.20;5.03;;;;;;;;;;5056115;28;20554;-53
2021/03/02 08:15:47;;;;;;;7.65;4.53;;;;;;;;;;5055889;28;20179;-50
2021/03/02 08:18:29;;;;;;;7.28;4.47;;;;;;;;;;5056174;28;20217;-57
2021/03/02 08:21:08;;;;;;;8.30;4.70;;;;;;;;;;5056261;28;20475;-52
2021/03/02 08:23:52;;;;;;;5.28;4.13;;;;;;;;;;5055719;28;20203;-51
2021/03/02 08:26:32;;;;;;;6.28;4.40;;;;;;;;;;5070759;28;20178;-55
2021/03/02 08:29:12;;;;;;;5.65;4.40;;;;;;;;;;5060619;28;20213;-51
2021/03/02 08:31:40;;;;;;;5.93;4.00;;;;;;;;;;5055518;28;20596;-54
2021/03/02 08:34:07;;;;;;;5.85;4.45;;;;;;;;;;5054692;28;20622;-51
2021/03/02 08:36:33;;;;;;;9.38;4.57;;;;;;;;;;5055924;28;20205;-54
2021/03/02 08:38:59;;;;;;;11.27;4.63;;;;;;;;;;5055958;28;20175;-54
2021/03/02 08:41:32;;;;;;;7.22;4.53;;;;;;;;;;5059079;28;20193;-53
2021/03/02 08:43:59;;;;;;;6.07;4.20;;;;;;;;;;5055515;28;20183;-53
2021/03/02 08:46:29;;;;;;;7.97;3.83;;;;;;;;;;5054810;28;20190;-52
2021/03/02 08:48:55;;;;;;;6.50;3.78;;;;;;;;;;5065057;28;20264;-50
2021/03/02 08:51:22;;;;;;;6.50;4.25;;;;;;;;;;5071622;28;20179;-52
2021/03/02 08:53:49;;;;;;;5.30;3.63;;;;;;;;;;5055337;28;20598;-49
2021/03/02 08:56:21;;;;;;;6.65;3.80;;;;;;;;;;5054332;28;20175;-52
2021/03/02 08:58:50;;;;;;;5.20;3.83;;;;;;;;;;5057859;28;20200;-49
2021/03/02 09:01:26;;;;;;;6.45;3.67;;;;;;;;;;5053685;28;20222;-54
2021/03/02 09:03:53;;;;;;;6.00;3.92;;;;;;;;;;5056228;28;20216;-53
2021/03/02 09:06:23;;;;;;;4.57;3.40;;;;;;;;;;5053447;28;20301;-49
2021/03/02 09:08:52;;;;;;;5.60;4.13;;;;;;;;;;5055027;28;20305;-56
2021/03/02 09:11:20;;;;;;;5.13;3.63;;;;;;;;;;5054788;28;20183;-51
2021/03/02 09:13:46;;;;;;;4.28;3.67;;;;;;;;;;5055005;28;20178;-49
2021/03/02 09:16:27;;;;;;;6.15;3.97;;;;;;;;;;5053356;28;20697;-57
2021/03/02 09:19:14;;;;;;;5.20;3.65;;;;;;;;;;5034991;28;20180;-51
2021/03/02 09:21:42;;;;;;;4.28;3.38;;;;;;;;;;5052600;28;20183;-60
2021/03/02 09:24:08;;;;;;;5.55;3.60;;;;;;;;;;5050888;28;20187;-52
2021/03/02 09:26:34;;;;;;;4.93;3.40;;;;;;;;;;5054772;28;20511;-52
2021/03/02 09:29:09;;;;;;;4.32;3.55;;;;;;;;;;5053399;28;20554;-50
2021/03/02 09:31:35;;;;;;;9.73;3.38;;;;;;;;;;5054841;28;20185;-51
2021/03/02 09:34:01;;;;;;;4.18;3.40;;;;;;;;;;5054647;28;20585;-50
2021/03/02 09:36:29;;;;;;;4.45;3.45;;;;;;;;;;5053031;28;20168;-52
2021/03/02 09:38:56;;;;;;;5.18;3.55;;;;;;;;;;5053541;28;20213;-51
2021/03/02 09:41:36;;;;;;;4.35;3.25;;;;;;;;;;5053793;28;20285;-51
2021/03/02 09:44:20;;;;;;;4.13;2.85;;;;;;;;;;5059023;28;20786;-52
2021/03/02 09:46:47;;;;;;;3.83;3.28;;;;;;;;;;5062629;28;20187;-53
2021/03/02 09:49:13;;;;;;;3.92;3.08;;;;;;;;;;5059255;28;20202;-50
2021/03/02 09:51:45;;;;;;;5.40;3.50;;;;;;;;;;5060229;28;20175;-53
2021/03/02 09:54:16;;;;;;;3.17;2.80;;;;;;;;;;5041604;28;20185;-51
2021/03/02 09:56:56;;;;;;;7.13;3.38;;;;;;;;;;5053679;28;20300;-48
2021/03/02 09:59:22;;;;;;;6.40;3.50;;;;;;;;;;5053532;28;20265;-52
2021/03/02 10:01:49;;;;;;;6.13;3.40;;;;;;;;;;5054138;28;20778;-54
2021/03/02 10:04:15;;;;;;;4.65;3.30;;;;;;;;;;5053320;28;20218;-52
2021/03/02 10:06:41;;;;;;;5.05;3.50;;;;;;;;;;5052882;28;20369;-50
2021/03/02 10:09:19;;;;;;;5.93;3.95;;;;;;;;;;5056827;28;20282;-50
2021/03/02 10:11:45;;;;;;;4.93;3.85;;;;;;;;;;5059821;28;20175;-48
2021/03/02 10:14:12;;;;;;;4.20;3.53;;;;;;;;;;5053799;28;20229;-51
2021/03/02 10:16:40;;;;;;;8.65;3.28;;;;;;;;;;5054997;28;20171;-54
2021/03/02 10:19:21;;;;;;;4.88;3.58;;;;;;;;;;5054619;28;20211;-56
2021/03/02 10:21:48;;;;;;;5.15;3.35;;;;;;;;;;5055202;28;20733;-55
2021/03/02 10:24:28;;;;;;;4.65;3.20;;;;;;;;;;5057276;28;20213;-53
2021/03/02 10:26:54;;;;;;;4.90;3.40;;;;;;;;;;5061953;28;20265;-54
2021/03/02 10:29:22;;;;;;;5.18;3.13;;;;;;;;;;5058467;28;20211;-52
2021/03/02 10:31:48;;;;;;;3.40;3.08;;;;;;;;;;5059705;28;20179;-52
2021/03/02 10:34:14;;;;;;;4.75;3.10;;;;;;;;;;5060649;28;20200;-51
2021/03/02 10:36:41;;;;;;;5.07;3.20;;;;;;;;;;5056807;28;20183;-54
2021/03/02 10:39:08;;;;;;;5.20;2.97;;;;;;;;;;5060395;28;20247;-51
2021/03/02 10:41:34;;;;;;;5.20;3.80;;;;;;;;;;5074080;28;20186;-52
2021/03/02 10:44:00;;;;;;;4.78;3.72;;;;;;;;;;5063590;28;20239;-53
2021/03/02 10:46:28;;;;;;;3.67;2.90;;;;;;;;;;5056371;28;20472;-50
2021/03/02 10:48:54;;;;;;;6.30;3.60;;;;;;;;;;5058372;28;20199;-50
2021/03/02 10:51:21;;;;;;;5.88;3.38;;;;;;;;;;5073803;28;20179;-49
2021/03/02 10:53:47;;;;;;;4.05;3.22;;;;;;;;;;5066485;28;20206;-54
2021/03/02 10:56:14;;;;;;;4.57;3.33;;;;;;;;;;5052817;28;20258;-51
2021/03/02 10:58:40;;;;;;;3.72;3.00;;;;;;;;;;5052946;28;20187;-51
2021/03/02 11:01:06;;;;;;;3.28;2.92;;;;;;;;;;5059626;28;20216;-49
2021/03/02 11:03:33;;;;;;;5.88;2.58;;;;;;;;;;5055171;28;20175;-49
2021/03/02 11:05:59;;;;;;;5.28;3.45;;;;;;;;;;5061451;28;20203;-52
2021/03/02 11:08:25;;;;;;;9.43;4.53;;;;;;;;;;5052394;28;20570;-54
2021/03/02 11:10:51;;;;;;;4.65;2.88;;;;;;;;;;5056441;28;20226;-52
2021/03/02 11:13:18;;;;;;;5.88;3.10;;;;;;;;;;5056720;28;20182;-49
2021/03/02 11:15:44;;;;;;;11.70;4.18;;;;;;;;;;5059364;28;20187;-50
2021/03/02 11:18:10;;;;;;;27.30;9.07;;;;;;;;;;5056592;28;20183;-49
2021/03/02 11:20:37;;;;;;;35.28;10.75;;;;;;;;;;5057056;28;20211;-50
2021/03/02 11:23:04;;;;;;;33.05;10.50;;;;;;;;;;5057272;28;20179;-49
2021/03/02 11:25:30;;;;;;;42.60;12.95;;;;;;;;;;5061077;28;20180;-49
2021/03/02 11:27:56;;;;;;;29.17;9.73;;;;;;;;;;5069349;28;20518;-53
2021/03/02 11:30:23;;;;;;;13.07;5.35;;;;;;;;;;5061470;28;20217;-53
2021/03/02 11:32:49;;;;;;;13.60;5.32;;;;;;;;;;5062467;28;20266;-53
2021/03/02 11:35:16;;;;;;;8.00;4.10;;;;;;;;;;5056023;28;20283;-53
2021/03/02 11:37:42;;;;;;;12.68;4.72;;;;;;;;;;5056880;28;20625;-52
2021/03/02 11:40:10;;;;;;;12.32;4.72;;;;;;;;;;5056428;28;20558;-50
2021/03/02 11:42:36;;;;;;;11.50;4.78;;;;;;;;;;5057895;28;20634;-51
2021/03/02 11:45:03;;;;;;;9.07;3.80;;;;;;;;;;5062889;28;20298;-51
2021/03/02 11:47:29;;;;;;;7.95;4.00;;;;;;;;;;5064479;28;20195;-49
2021/03/02 11:49:55;;;;;;;8.05;4.00;;;;;;;;;;5056446;28;20669;-60
2021/03/02 11:52:22;;;;;;;10.88;3.97;;;;;;;;;;5068511;28;20258;-53
2021/03/02 11:54:49;;;;;;;9.60;4.13;;;;;;;;;;5071622;28;20209;-59
2021/03/02 11:57:15;;;;;;;8.85;4.13;;;;;;;;;;5056690;28;20180;-50
2021/03/02 11:59:41;;;;;;;9.10;2.97;;;;;;;;;;5056133;28;20187;-50
2021/03/02 12:02:08;;;;;;;10.93;3.15;;;;;;;;;;5065819;28;20282;-50
2021/03/02 12:04:34;;;;;;;7.53;3.13;;;;;;;;;;5075913;28;20572;-50
2021/03/02 12:07:00;;;;;;;6.72;3.03;;;;;;;;;;5059831;28;20639;-50
2021/03/02 12:09:26;;;;;;;5.72;3.40;;;;;;;;;;5067097;28;20297;-50
2021/03/02 12:11:52;;;;;;;9.25;3.15;;;;;;;;;;5055594;28;20195;-50
2021/03/02 12:14:18;;;;;;;7.93;2.67;;;;;;;;;;5055513;28;20195;-50
2021/03/02 12:16:44;;;;;;;7.45;3.20;;;;;;;;;;5056280;28;20171;-50
2021/03/02 12:19:10;;;;;;;7.22;2.88;;;;;;;;;;5057302;28;20183;-50
2021/03/02 12:21:36;;;;;;;5.15;2.88;;;;;;;;;;5066477;28;20202;-50
2021/03/02 12:24:02;;;;;;;4.32;2.50;;;;;;;;;;5056078;28;20187;-50
2021/03/02 12:26:28;;;;;;;6.07;3.55;;;;;;;;;;5056445;28;20493;-50
2021/03/02 12:28:54;;;;;;;6.20;3.00;;;;;;;;;;5059953;28;20441;-50
2021/03/02 12:31:20;;;;;;;3.58;2.80;;;;;;;;;;5055135;28;20775;-50
2021/03/02 12:33:46;;;;;;;6.93;3.03;;;;;;;;;;5055964;28;20700;-50
2021/03/02 12:36:12;;;;;;;7.22;2.72;;;;;;;;;;5055073;28;20190;-50
2021/03/02 12:38:38;;;;;;;6.13;2.60;;;;;;;;;;5055906;28;20183;-50
2021/03/02 12:41:04;;;;;;;4.40;2.80;;;;;;;;;;5055797;28;20297;-50
2021/03/02 12:43:30;;;;;;;3.85;2.63;;;;;;;;;;5057429;28;20517;-50
2021/03/02 12:45:56;;;;;;;8.65;2.38;;;;;;;;;;5066396;28;20473;-50
2021/03/02 12:48:23;;;;;;;4.18;2.42;;;;;;;;;;5054597;28;20206;-50
2021/03/02 12:50:49;;;;;;;5.00;2.88;;;;;;;;;;5060988;28;20545;-50
2021/03/02 12:53:15;;;;;;;4.50;2.53;;;;;;;;;;5055616;28;20190;-50
2021/03/02 12:55:41;;;;;;;4.22;2.55;;;;;;;;;;5055246;28;20468;-50
2021/03/02 12:58:08;;;;;;;2.65;1.77;;;;;;;;;;5055194;28;20221;-50
2021/03/02 13:00:34;;;;;;;3.50;2.45;;;;;;;;;;5059268;28;20190;-50
2021/03/02 13:03:00;;;;;;;6.65;2.50;;;;;;;;;;5055410;28;20262;-51
2021/03/02 13:05:30;;;;;;;5.35;2.60;;;;;;;;;;5054485;28;20194;-50
2021/03/02 13:07:57;;;;;;;3.50;2.45;;;;;;;;;;5054730;28;20202;-50
2021/03/02 13:10:23;;;;;;;2.25;2.03;;;;;;;;;;5054578;28;20574;-50
2021/03/02 13:12:49;;;;;;;3.47;2.40;;;;;;;;;;5054285;28;20179;-49
2021/03/02 13:15:16;;;;;;;3.53;2.58;;;;;;;;;;5053365;28;20183;-50
2021/03/02 13:17:43;;;;;;;4.55;2.38;;;;;;;;;;5054442;28;20183;-50
2021/03/02 13:20:09;;;;;;;3.17;2.22;;;;;;;;;;5053276;28;20202;-50
2021/03/02 13:22:36;;;;;;;3.22;2.38;;;;;;;;;;5054608;28;20219;-50
2021/03/02 13:25:02;;;;;;;2.95;2.20;;;;;;;;;;5053838;28;20189;-50
2021/03/02 13:27:28;;;;;;;3.92;2.30;;;;;;;;;;5053862;28;20183;-50
2021/03/02 13:29:56;;;;;;;3.13;2.22;;;;;;;;;;5054575;28;20289;-50
2021/03/02 13:32:43;;;;;;;2.45;2.08;;;;;;;;;;5054108;28;20179;-50
2021/03/02 13:35:09;;;;;;;2.97;2.00;;;;;;;;;;5054152;28;20171;-50
2021/03/02 13:37:37;;;;;;;5.72;2.58;;;;;;;;;;5054622;28;20176;-50
2021/03/02 13:40:04;;;;;;;6.25;1.85;;;;;;;;;;5054791;28;20225;-50
2021/03/02 13:42:30;;;;;;;5.78;2.15;;;;;;;;;;5053875;28;20214;-50
2021/03/02 13:44:57;;;;;;;3.15;2.50;;;;;;;;;;5053878;28;20488;-50
2021/03/02 13:47:23;;;;;;;6.50;2.33;;;;;;;;;;5053909;28;20218;-50
2021/03/02 13:49:50;;;;;;;4.57;2.08;;;;;;;;;;5054382;28;20199;-50
2021/03/02 13:52:16;;;;;;;2.97;2.13;;;;;;;;;;5054170;28;20207;-50
2021/03/02 13:54:42;;;;;;;3.92;2.22;;;;;;;;;;5053092;28;20542;-50
2021/03/02 13:57:08;;;;;;;3.42;2.00;;;;;;;;;;5054282;28;20183;-50
2021/03/02 13:59:35;;;;;;;3.63;2.40;;;;;;;;;;5054133;28;20175;-50
2021/03/02 14:02:04;;;;;;;4.45;1.92;;;;;;;;;;5055096;28;20602;-50
2021/03/02 14:04:34;;;;;;;4.10;2.00;;;;;;;;;;5059642;28;20196;-50
2021/03/02 14:07:02;;;;;;;3.25;2.03;;;;;;;;;;5074359;28;20190;-50
2021/03/02 14:09:30;;;;;;;2.13;1.83;;;;;;;;;;5060440;28;20242;-50
2021/03/02 14:11:56;;;;;;;3.92;2.25;;;;;;;;;;5048304;28;20179;-50
2021/03/02 14:14:23;;;;;;;4.35;2.03;;;;;;;;;;5053234;28;20179;-49
2021/03/02 14:16:50;;;;;;;4.38;2.28;;;;;;;;;;5054982;28;20190;-49
2021/03/02 14:19:16;;;;;;;3.63;2.40;;;;;;;;;;5052911;28;20273;-50
2021/03/02 14:21:42;;;;;;;4.68;2.08;;;;;;;;;;5052244;28;20225;-49
2021/03/02 14:24:09;;;;;;;5.68;1.95;;;;;;;;;;5051383;28;20439;-49
2021/03/02 14:26:36;;;;;;;5.22;2.00;;;;;;;;;;5053920;28;20183;-49
2021/03/02 14:29:03;;;;;;;4.80;2.20;;;;;;;;;;5053700;28;20408;-50
2021/03/02 14:31:29;;;;;;;3.83;2.05;;;;;;;;;;5053868;28;20171;-49
2021/03/02 14:33:55;;;;;;;4.03;2.10;;;;;;;;;;5053734;28;20179;-49
2021/03/02 14:36:22;;;;;;;3.28;2.00;;;;;;;;;;5053178;28;20836;-49
2021/03/02 14:38:48;;;;;;;6.07;2.38;;;;;;;;;;5053537;28;20190;-49
2021/03/02 14:41:18;;;;;;;5.00;2.13;;;;;;;;;;5053579;28;20187;-49
2021/03/02 14:43:45;;;;;;;4.13;1.92;;;;;;;;;;5053765;28;20183;-49
2021/03/02 14:46:13;;;;;;;3.90;2.30;;;;;;;;;;5053140;28;20230;-49